Kisbey, Canada
Current Conditions -  °F | °C
As of 1:00 AM on Tuesday 21 Oct 2014 (Local Time) from CYEN Reporting Station
Clear Clear  
Wind Chill: 52°   Ceiling: Unl
Heat Index: 52°   Visibility: 15mi
Dew Point: 41°   Wind: 10mph
Humidity: 67%   Direction: 140°SE
Pressure: 29.79"   Gusts: NA
Location:  49.63°N, 102.67°W
Report Text: CYEN 210700Z 14009KT 15SM SKC 11/05 A2979 RMK SLP094
Loading
Personal Weather Stations






























Interactive Weather Map
Tropical Storm Tracking
New forecast layout! Learn more

10-Day Weather Forecast

Advertisements
Track Severe Weather on mobile